Time;durP1;ratioP1;P1;durP2;ratioP2;P2;SDS_P1;SDS_P2;PMS_P1;PMS_P2;Temp;Humidity;BMP_temperature;BMP_pressure;BME280_temperature;BME280_humidity;BME280_pressure;Samples;Min_cycle;Max_cycle;Signal;HPM_P1;HPM_P2
2021/08/26 00:00:17;;;;;;;1.90;1.42;;;21.60;66.70;;;;;;5041646;28;20033;-60
2021/08/26 00:05:50;;;;;;;4.57;1.75;;;21.60;66.60;;;;;;5040482;28;20040;-59
2021/08/26 00:08:21;;;;;;;3.15;1.77;;;21.50;67.50;;;;;;5041872;28;20048;-59
2021/08/26 00:10:48;;;;;;;2.20;1.75;;;21.50;66.50;;;;;;5040218;28;20045;-56
2021/08/26 00:13:15;;;;;;;3.92;1.73;;;21.60;66.40;;;;;;5042025;28;20028;-58
2021/08/26 00:15:46;;;;;;;3.10;1.70;;;21.60;66.10;;;;;;5042248;28;20048;-56
2021/08/26 00:18:16;;;;;;;2.75;1.60;;;21.60;66.10;;;;;;5041427;28;20040;-59
2021/08/26 00:20:44;;;;;;;3.20;1.95;;;21.50;66.00;;;;;;5041145;28;20397;-57
2021/08/26 00:23:10;;;;;;;7.18;2.72;;;21.50;66.10;;;;;;5052443;28;20029;-56
2021/08/26 00:25:38;;;;;;;3.25;1.60;;;21.50;66.30;;;;;;5052357;28;20041;-56
2021/08/26 00:28:04;;;;;;;2.33;1.45;;;21.50;66.40;;;;;;5052494;28;20037;-57
2021/08/26 00:30:31;;;;;;;2.72;1.50;;;21.50;66.30;;;;;;5051316;28;20041;-57
2021/08/26 00:32:57;;;;;;;3.33;1.50;;;21.50;66.60;;;;;;5051080;28;20037;-58
2021/08/26 00:35:24;;;;;;;4.82;1.65;;;21.60;66.60;;;;;;5051450;28;20033;-57
2021/08/26 00:37:50;;;;;;;3.58;1.83;;;21.50;66.60;;;;;;5051154;28;20457;-57
2021/08/26 00:40:17;;;;;;;2.20;1.70;;;21.60;66.50;;;;;;5051077;28;20556;-58
2021/08/26 00:42:43;;;;;;;2.83;1.58;;;21.60;66.40;;;;;;5051340;28;20096;-57
2021/08/26 00:45:11;;;;;;;2.90;1.55;;;21.60;66.40;;;;;;5051774;28;20029;-57
2021/08/26 00:47:38;;;;;;;3.63;1.90;;;21.60;66.40;;;;;;5051072;28;20033;-58
2021/08/26 00:50:05;;;;;;;2.90;1.80;;;21.70;66.50;;;;;;5051813;28;20052;-58
2021/08/26 00:52:37;;;;;;;4.40;1.60;;;21.70;66.50;;;;;;5052140;28;20397;-59
2021/08/26 00:55:05;;;;;;;2.72;1.63;;;21.60;66.40;;;;;;5052378;28;20029;-59
2021/08/26 00:57:32;;;;;;;5.65;1.50;;;21.60;66.50;;;;;;5052453;28;20037;-58
2021/08/26 00:59:58;;;;;;;4.28;1.83;;;21.60;66.50;;;;;;5051090;28;20508;-58
2021/08/26 01:02:56;;;;;;;3.22;1.83;;;21.60;66.50;;;;;;5052549;28;20029;-58
2021/08/26 01:05:44;;;;;;;8.23;1.88;;;21.60;66.60;;;;;;5052306;28;20035;-57
2021/08/26 01:08:32;;;;;;;2.38;1.40;;;21.60;66.60;;;;;;5056306;28;20461;-58
2021/08/26 01:11:01;;;;;;;2.58;1.60;;;21.50;66.30;;;;;;5056131;28;20377;-57
2021/08/26 01:13:41;;;;;;;2.92;1.73;;;21.50;66.60;;;;;;5055859;28;20037;-57
2021/08/26 01:16:11;;;;;;;2.55;1.60;;;21.50;66.50;;;;;;5056031;28;20033;-59
2021/08/26 01:18:40;;;;;;;2.97;1.55;;;21.50;66.50;;;;;;5056014;28;20040;-57
2021/08/26 01:21:07;;;;;;;4.15;1.70;;;21.60;66.40;;;;;;5055827;28;20461;-57
2021/08/26 01:23:36;;;;;;;5.18;1.63;;;21.50;66.30;;;;;;5055862;28;20051;-58
2021/08/26 01:26:07;;;;;;;1.83;1.50;;;21.50;66.30;;;;;;5056073;28;20056;-59
2021/08/26 01:28:38;;;;;;;2.80;1.35;;;21.50;66.20;;;;;;5055512;28;20064;-56
2021/08/26 01:31:05;;;;;;;2.10;1.45;;;21.50;66.60;;;;;;5055708;28;20381;-58
2021/08/26 01:33:32;;;;;;;2.30;1.40;;;21.50;66.60;;;;;;5055785;28;20394;-58
2021/08/26 01:36:02;;;;;;;2.72;1.48;;;21.50;66.60;;;;;;5055308;28;20036;-59
2021/08/26 01:38:30;;;;;;;3.08;2.20;;;21.50;66.50;;;;;;5055828;28;20040;-56
2021/08/26 01:40:57;;;;;;;2.42;1.73;;;21.50;66.90;;;;;;5055293;28;20029;-58
2021/08/26 01:43:23;;;;;;;3.08;1.98;;;21.50;67.40;;;;;;5055586;28;20033;-58
2021/08/26 01:45:50;;;;;;;2.25;1.30;;;21.40;67.60;;;;;;5055195;28;20037;-57
2021/08/26 01:48:20;;;;;;;1.92;1.40;;;21.40;67.90;;;;;;5055256;28;20033;-58
2021/08/26 01:50:48;;;;;;;3.75;1.80;;;21.40;68.30;;;;;;5055094;28;20052;-57
2021/08/26 01:53:16;;;;;;;3.05;1.70;;;21.30;69.00;;;;;;5054838;28;20045;-58
2021/08/26 01:55:45;;;;;;;4.05;1.75;;;21.30;69.70;;;;;;5054260;28;20041;-55
2021/08/26 01:58:12;;;;;;;4.03;2.03;;;21.20;70.00;;;;;;5053781;28;20041;-56
2021/08/26 02:00:39;;;;;;;2.55;1.83;;;21.10;70.40;;;;;;5053389;28;20048;-54
2021/08/26 02:03:06;;;;;;;3.97;1.98;;;21.00;70.80;;;;;;5055017;28;20025;-56
2021/08/26 02:05:32;;;;;;;3.17;1.90;;;21.00;71.10;;;;;;5054804;28;20049;-56
2021/08/26 02:07:59;;;;;;;1.98;1.35;;;21.00;71.30;;;;;;5054700;28;20039;-57
2021/08/26 02:10:25;;;;;;;3.53;1.90;;;20.90;71.30;;;;;;5054146;28;20393;-57
2021/08/26 02:12:52;;;;;;;3.00;1.73;;;20.90;71.60;;;;;;5054863;28;20045;-56
2021/08/26 02:15:19;;;;;;;2.72;1.70;;;20.90;71.90;;;;;;5054738;28;20052;-56
2021/08/26 02:17:45;;;;;;;3.33;1.75;;;20.90;73.00;;;;;;5054346;28;20037;-57
2021/08/26 02:20:12;;;;;;;2.17;1.70;;;20.90;72.30;;;;;;5055008;28;20044;-56
2021/08/26 02:22:39;;;;;;;8.77;1.88;;;20.80;72.30;;;;;;5053301;28;20033;-54
2021/08/26 02:25:08;;;;;;;4.55;2.10;;;20.80;72.50;;;;;;5054919;28;20497;-58
2021/08/26 02:27:35;;;;;;;6.45;1.73;;;20.80;72.70;;;;;;5054552;28;20039;-56
2021/08/26 02:30:02;;;;;;;3.97;1.40;;;20.80;73.00;;;;;;5053046;28;20040;-57
2021/08/26 02:32:29;;;;;;;12.23;2.55;;;20.70;73.20;;;;;;5054227;28;20401;-57
2021/08/26 02:34:59;;;;;;;5.47;2.00;;;20.70;73.30;;;;;;5054489;28;20041;-58
2021/08/26 02:37:26;;;;;;;2.50;1.73;;;20.60;73.30;;;;;;5053949;28;20041;-59
2021/08/26 02:39:52;;;;;;;2.95;2.00;;;20.60;73.50;;;;;;5053293;28;20044;-57
2021/08/26 02:42:19;;;;;;;3.35;1.40;;;20.60;73.50;;;;;;5054105;28;20048;-56
2021/08/26 02:44:45;;;;;;;3.55;1.80;;;20.60;73.60;;;;;;5054135;28;20029;-56
2021/08/26 02:47:12;;;;;;;3.10;1.95;;;20.60;73.70;;;;;;5052726;28;20048;-57
2021/08/26 02:49:39;;;;;;;5.20;1.80;;;20.50;73.80;;;;;;5054610;28;20462;-58
2021/08/26 02:52:06;;;;;;;3.90;1.92;;;20.50;73.90;;;;;;5054345;28;20508;-56
2021/08/26 02:54:32;;;;;;;3.85;1.50;;;20.50;73.80;;;;;;5053976;28;20033;-56
2021/08/26 02:56:59;;;;;;;5.20;2.00;;;20.50;73.80;;;;;;5053951;28;20407;-57
2021/08/26 02:59:25;;;;;;;2.17;1.35;;;20.50;73.90;;;;;;5052471;28;20056;-58
2021/08/26 03:01:52;;;;;;;2.90;1.80;;;20.50;73.80;;;;;;5053926;28;20041;-56
2021/08/26 03:04:18;;;;;;;2.97;1.73;;;20.40;74.10;;;;;;5052856;28;20469;-57
2021/08/26 03:06:45;;;;;;;4.13;1.60;;;20.40;74.40;;;;;;5053987;28;20029;-57
2021/08/26 03:09:12;;;;;;;2.97;1.75;;;20.40;74.40;;;;;;5053223;28;20056;-57
2021/08/26 03:11:39;;;;;;;3.40;1.83;;;20.40;74.60;;;;;;5053994;28;20033;-56
2021/08/26 03:14:05;;;;;;;2.63;1.60;;;20.30;74.70;;;;;;5053414;28;20048;-57
2021/08/26 03:16:32;;;;;;;2.38;1.60;;;20.30;74.90;;;;;;5053366;28;20056;-57
2021/08/26 03:18:58;;;;;;;4.03;1.63;;;20.30;75.00;;;;;;5053905;28;20037;-57
2021/08/26 03:21:24;;;;;;;2.15;1.92;;;20.20;75.20;;;;;;5053651;28;20040;-56
2021/08/26 03:23:51;;;;;;;2.45;1.83;;;20.20;75.10;;;;;;5052531;28;20045;-58
2021/08/26 03:26:17;;;;;;;2.70;1.63;;;20.30;75.10;;;;;;5052913;28;20393;-56
2021/08/26 03:28:44;;;;;;;2.90;1.55;;;20.20;75.00;;;;;;5052631;28;20056;-58
2021/08/26 03:31:12;;;;;;;4.80;1.80;;;20.20;75.20;;;;;;5053684;28;20037;-56
2021/08/26 03:33:39;;;;;;;2.83;1.55;;;20.20;75.40;;;;;;5053063;28;20132;-57
2021/08/26 03:36:05;;;;;;;4.28;1.90;;;20.20;75.40;;;;;;5053227;28;20385;-57
2021/08/26 03:38:32;;;;;;;3.10;1.70;;;20.20;75.70;;;;;;5051503;28;20053;-56
2021/08/26 03:40:58;;;;;;;3.97;1.73;;;20.10;75.80;;;;;;5053023;28;20492;-55
2021/08/26 03:43:26;;;;;;;2.75;2.05;;;20.10;76.20;;;;;;5053000;28;20032;-56
2021/08/26 03:45:52;;;;;;;3.92;2.05;;;20.00;76.40;;;;;;5053254;28;20032;-57
2021/08/26 03:48:19;;;;;;;3.03;2.10;;;20.00;76.50;;;;;;5052896;28;20040;-57
2021/08/26 03:50:45;;;;;;;4.05;2.00;;;20.00;76.40;;;;;;5051648;28;20037;-57
2021/08/26 03:53:12;;;;;;;4.85;2.10;;;20.00;76.50;;;;;;5053429;28;20393;-55
2021/08/26 03:55:38;;;;;;;2.60;1.73;;;20.00;76.70;;;;;;5052802;28;20048;-56
2021/08/26 03:58:05;;;;;;;2.60;1.58;;;19.90;76.70;;;;;;5052750;28;20036;-55
2021/08/26 04:00:31;;;;;;;2.80;2.10;;;19.90;76.90;;;;;;5052869;28;20048;-56
2021/08/26 04:02:58;;;;;;;4.40;2.22;;;19.80;77.10;;;;;;5052920;28;20390;-56
2021/08/26 04:05:24;;;;;;;3.03;1.80;;;19.80;77.40;;;;;;5052631;28;20029;-57
2021/08/26 04:07:51;;;;;;;2.45;1.85;;;19.80;77.60;;;;;;5052905;28;20044;-56
2021/08/26 04:10:18;;;;;;;2.83;1.75;;;19.80;77.70;;;;;;5052997;28;20044;-56
2021/08/26 04:12:44;;;;;;;5.90;2.58;;;19.70;77.90;;;;;;5052744;28;20350;-56
2021/08/26 04:15:11;;;;;;;3.78;2.00;;;19.70;77.80;;;;;;5052934;28;20044;-56
2021/08/26 04:17:37;;;;;;;5.72;2.45;;;19.70;77.90;;;;;;5051456;28;20037;-57
2021/08/26 04:20:04;;;;;;;3.50;1.95;;;19.70;77.70;;;;;;5052108;28;20045;-56
2021/08/26 04:22:31;;;;;;;6.13;2.53;;;19.70;77.80;;;;;;5052339;28;20049;-56
2021/08/26 04:24:57;;;;;;;2.83;2.25;;;19.70;77.70;;;;;;5052400;28;20060;-57
2021/08/26 04:27:24;;;;;;;5.57;2.20;;;19.70;77.80;;;;;;5051439;28;20069;-56
2021/08/26 04:29:50;;;;;;;5.97;2.63;;;19.70;78.00;;;;;;5034859;28;20045;-57
2021/08/26 04:32:17;;;;;;;4.68;2.45;;;19.60;77.90;;;;;;5051580;28;20051;-58
2021/08/26 04:34:43;;;;;;;4.57;2.15;;;19.60;78.00;;;;;;5052886;28;20373;-56
2021/08/26 04:37:09;;;;;;;2.88;1.95;;;19.60;78.00;;;;;;5052088;28;20082;-57
2021/08/26 04:39:36;;;;;;;3.80;2.00;;;19.60;78.10;;;;;;5052217;28;20501;-58
2021/08/26 04:42:03;;;;;;;5.25;1.98;;;19.60;79.10;;;;;;5055434;28;20036;-57
2021/08/26 04:44:29;;;;;;;4.35;1.85;;;19.60;78.70;;;;;;5056684;28;20474;-56
2021/08/26 04:46:56;;;;;;;4.28;1.80;;;19.50;78.80;;;;;;5056266;28;20496;-58
2021/08/26 04:49:23;;;;;;;4.60;2.10;;;19.50;78.90;;;;;;5056374;28;20033;-57
2021/08/26 04:51:49;;;;;;;2.80;2.15;;;19.50;79.10;;;;;;5056227;28;20508;-55
2021/08/26 04:54:18;;;;;;;5.43;1.67;;;19.50;79.10;;;;;;5056333;28;20037;-57
2021/08/26 04:56:44;;;;;;;3.42;2.10;;;19.50;79.10;;;;;;5056172;28;20500;-56
2021/08/26 04:59:11;;;;;;;2.25;1.65;;;19.50;78.90;;;;;;5056266;28;20385;-55
2021/08/26 05:01:37;;;;;;;3.88;1.65;;;19.50;79.10;;;;;;5055204;28;20384;-57
2021/08/26 05:04:04;;;;;;;1.58;1.40;;;19.50;79.20;;;;;;5056080;28;20043;-57
2021/08/26 05:06:32;;;;;;;2.85;1.77;;;19.50;79.30;;;;;;5056075;28;20032;-57
2021/08/26 05:08:58;;;;;;;2.78;2.10;;;19.50;79.40;;;;;;5055002;28;20044;-56
2021/08/26 05:11:25;;;;;;;3.05;1.80;;;19.50;79.50;;;;;;5055864;28;20489;-56
2021/08/26 05:13:51;;;;;;;3.08;1.80;;;19.50;79.50;;;;;;5055716;28;20041;-55
2021/08/26 05:16:18;;;;;;;3.00;1.63;;;19.50;79.70;;;;;;5056308;28;20033;-56
2021/08/26 05:18:44;;;;;;;2.67;1.95;;;19.50;79.60;;;;;;5055841;28;20025;-56
2021/08/26 05:21:11;;;;;;;2.67;1.55;;;19.50;79.90;;;;;;5054382;28;20107;-57
2021/08/26 05:23:38;;;;;;;3.28;1.90;;;19.50;79.90;;;;;;5054564;28;20496;-56
2021/08/26 05:26:04;;;;;;;5.13;2.05;;;19.40;80.00;;;;;;5055785;28;20037;-57
2021/08/26 05:28:31;;;;;;;3.80;1.80;;;19.40;80.10;;;;;;5055147;28;20416;-57
2021/08/26 05:30:57;;;;;;;2.67;1.70;;;19.40;80.20;;;;;;5054643;28;20063;-56
2021/08/26 05:33:24;;;;;;;5.07;2.22;;;19.50;80.30;;;;;;5055381;28;20072;-57
2021/08/26 05:35:50;;;;;;;3.13;2.20;;;19.50;80.40;;;;;;5054365;28;20029;-57
2021/08/26 05:38:17;;;;;;;3.03;2.00;;;19.50;80.30;;;;;;5055518;28;20390;-53
2021/08/26 05:40:43;;;;;;;5.45;2.20;;;19.50;80.50;;;;;;5054742;28;20037;-56
2021/08/26 05:43:09;;;;;;;5.85;1.92;;;19.50;80.70;;;;;;5055453;28;20036;-57
2021/08/26 05:45:36;;;;;;;7.90;2.40;;;19.60;80.70;;;;;;5055425;28;20040;-58
2021/08/26 05:48:03;;;;;;;7.65;2.53;;;19.60;80.80;;;;;;5055081;28;20073;-56
2021/08/26 05:50:29;;;;;;;3.97;2.08;;;19.60;81.00;;;;;;5054896;28;20512;-53
2021/08/26 05:52:56;;;;;;;7.50;2.40;;;19.60;81.00;;;;;;5054329;28;20359;-56
2021/08/26 05:55:22;;;;;;;3.28;2.08;;;19.70;81.10;;;;;;5054924;28;20112;-56
2021/08/26 05:57:48;;;;;;;5.07;2.80;;;19.70;81.20;;;;;;5054757;28;20052;-56
2021/08/26 06:00:15;;;;;;;9.35;3.00;;;19.80;81.20;;;;;;5054788;28;20037;-56
2021/08/26 06:02:42;;;;;;;6.20;2.97;;;19.80;81.20;;;;;;5054544;28;20044;-56
2021/08/26 06:05:09;;;;;;;3.45;2.35;;;19.80;81.20;;;;;;5053439;28;20032;-56
2021/08/26 06:07:38;;;;;;;4.32;2.20;;;19.90;81.40;;;;;;5054270;28;20394;-53
2021/08/26 06:10:08;;;;;;;5.72;2.90;;;19.90;80.90;;;;;;5054769;28;20032;-57
2021/08/26 06:12:39;;;;;;;8.15;2.58;;;20.00;80.60;;;;;;5054808;28;20049;-56
2021/08/26 06:15:07;;;;;;;6.57;2.25;;;20.00;80.20;;;;;;5054505;28;20045;-57
2021/08/26 06:17:34;;;;;;;13.05;2.35;;;20.10;79.10;;;;;;5054416;28;20037;-56
2021/08/26 06:20:01;;;;;;;3.00;2.08;;;20.10;76.50;;;;;;5054203;28;20041;-56
2021/08/26 06:22:28;;;;;;;3.97;1.90;;;20.20;75.00;;;;;;5054655;28;20512;-55
2021/08/26 06:24:54;;;;;;;2.88;1.88;;;20.20;74.70;;;;;;5053868;28;20048;-55
2021/08/26 06:27:20;;;;;;;2.10;1.63;;;20.30;74.40;;;;;;5054805;28;20029;-58
2021/08/26 06:29:47;;;;;;;5.68;1.85;;;20.40;73.90;;;;;;5054790;28;20052;-57
2021/08/26 06:32:13;;;;;;;4.18;1.70;;;20.60;73.40;;;;;;5052975;28;20048;-57
2021/08/26 06:34:44;;;;;;;;;;;20.80;72.10;;;;;;5054776;28;20037;-57
2021/08/26 06:37:11;;;;;;;7.07;1.45;;;21.00;71.20;;;;;;5054093;28;19916;-56
2021/08/26 06:39:38;;;;;;;2.03;1.40;;;21.10;70.60;;;;;;5053817;28;20044;-57
2021/08/26 06:42:04;;;;;;;5.32;1.70;;;21.30;70.20;;;;;;5054271;28;20040;-57
2021/08/26 06:44:31;;;;;;;2.38;1.40;;;21.40;69.40;;;;;;5054372;28;20029;-59
2021/08/26 06:46:57;;;;;;;5.32;2.05;;;21.50;68.60;;;;;;5053844;28;20040;-58
2021/08/26 06:49:24;;;;;;;3.35;2.17;;;21.60;68.30;;;;;;5053252;28;20033;-56
2021/08/26 06:51:51;;;;;;;2.88;1.60;;;21.80;68.20;;;;;;5054117;28;20052;-57
2021/08/26 06:54:17;;;;;;;3.47;2.25;;;21.90;67.90;;;;;;5052892;28;20036;-58
2021/08/26 06:56:43;;;;;;;3.72;2.30;;;22.00;67.70;;;;;;5053524;28;20055;-56
2021/08/26 06:59:10;;;;;;;2.67;1.48;;;22.10;67.70;;;;;;5053711;28;20048;-58
2021/08/26 07:01:36;;;;;;;5.35;2.05;;;22.20;67.10;;;;;;5053363;28;20059;-59
2021/08/26 07:04:03;;;;;;;3.25;1.77;;;22.30;67.00;;;;;;5052675;28;20041;-59
2021/08/26 07:06:29;;;;;;;6.47;3.72;;;22.30;66.70;;;;;;5053887;28;20481;-59
2021/08/26 07:08:56;;;;;;;3.58;2.47;;;22.40;66.30;;;;;;5052961;28;20041;-56
2021/08/26 07:11:22;;;;;;;4.82;2.75;;;22.60;65.80;;;;;;5052654;28;20044;-57
2021/08/26 07:13:49;;;;;;;6.40;3.03;;;22.70;65.90;;;;;;5053481;28;20464;-58
2021/08/26 07:16:17;;;;;;;9.70;3.85;;;22.80;65.30;;;;;;5053968;28;20053;-58
2021/08/26 07:18:44;;;;;;;8.57;4.30;;;22.90;64.80;;;;;;5053545;28;20405;-57
2021/08/26 07:21:10;;;;;;;6.32;3.88;;;22.90;64.70;;;;;;5053551;28;20055;-57
2021/08/26 07:23:37;;;;;;;4.72;2.75;;;23.00;64.70;;;;;;5051681;28;20037;-58
2021/08/26 07:26:03;;;;;;;7.07;2.85;;;23.10;64.10;;;;;;5053117;28;20052;-57
2021/08/26 07:28:30;;;;;;;4.60;2.50;;;23.20;62.90;;;;;;5051654;28;20091;-59
2021/08/26 07:30:57;;;;;;;4.18;2.75;;;23.10;62.90;;;;;;5053200;28;20083;-59
2021/08/26 07:33:23;;;;;;;5.95;2.85;;;23.20;63.20;;;;;;5053404;28;20029;-58
2021/08/26 07:35:50;;;;;;;7.50;2.90;;;23.20;63.40;;;;;;5053277;28;20033;-60
2021/08/26 07:38:16;;;;;;;6.00;3.15;;;23.30;62.30;;;;;;5053132;28;20059;-57
2021/08/26 07:40:42;;;;;;;4.78;2.88;;;23.30;61.90;;;;;;5052893;28;20398;-63
2021/08/26 07:43:09;;;;;;;12.35;3.35;;;23.30;61.70;;;;;;5053063;28;20025;-59
2021/08/26 07:45:35;;;;;;;4.28;2.80;;;23.40;61.80;;;;;;5051746;28;20389;-58
2021/08/26 07:48:03;;;;;;;3.85;2.83;;;23.30;61.80;;;;;;5053109;28;20032;-57
2021/08/26 07:50:29;;;;;;;4.50;3.08;;;23.40;61.90;;;;;;5052070;28;20053;-57
2021/08/26 07:52:56;;;;;;;4.63;2.45;;;23.40;61.80;;;;;;5052796;28;20037;-61
2021/08/26 07:55:22;;;;;;;5.30;3.10;;;23.60;61.40;;;;;;5052868;28;20044;-60
2021/08/26 07:57:49;;;;;;;3.33;2.22;;;23.70;60.70;;;;;;5048425;28;20056;-61
2021/08/26 08:00:15;;;;;;;7.72;3.30;;;23.70;60.60;;;;;;5052803;28;20469;-56
2021/08/26 08:02:42;;;;;;;4.25;3.03;;;23.70;60.30;;;;;;5049826;28;20026;-61
2021/08/26 08:05:09;;;;;;;6.78;2.60;;;23.90;60.40;;;;;;5041814;28;20482;-61
2021/08/26 08:07:42;;;;;;;6.95;3.40;;;24.00;60.10;;;;;;5025784;28;20038;-61
2021/08/26 08:10:08;;;;;;;4.00;2.55;;;23.90;59.40;;;;;;5040917;28;20032;-62
2021/08/26 08:12:35;;;;;;;3.40;2.30;;;23.80;59.60;;;;;;5040908;28;20025;-61
2021/08/26 08:15:01;;;;;;;5.78;3.60;;;24.00;59.70;;;;;;5041499;28;20033;-59
2021/08/26 08:17:29;;;;;;;7.47;3.88;;;23.90;59.50;;;;;;5041590;28;20045;-64
2021/08/26 08:19:55;;;;;;;5.28;3.63;;;24.00;59.60;;;;;;5041053;28;20040;-61
2021/08/26 08:22:21;;;;;;;5.15;3.28;;;23.90;59.60;;;;;;5037410;28;20056;-60
2021/08/26 08:24:48;;;;;;;6.88;2.83;;;23.90;59.50;;;;;;5032962;28;20045;-59
2021/08/26 08:27:14;;;;;;;6.72;3.30;;;24.00;59.40;;;;;;5032550;28;20478;-75
2021/08/26 08:29:41;;;;;;;6.60;2.72;;;24.10;59.40;;;;;;5031188;28;20417;-65
2021/08/26 08:32:07;;;;;;;5.78;2.97;;;24.20;59.10;;;;;;5032659;28;20041;-65
2021/08/26 08:34:34;;;;;;;4.68;2.25;;;24.30;58.70;;;;;;5031641;28;20049;-64
2021/08/26 08:37:02;;;;;;;10.40;2.50;;;24.30;57.80;;;;;;5032450;28;20041;-65
2021/08/26 08:39:29;;;;;;;3.17;2.15;;;24.40;58.00;;;;;;5052096;28;20029;-65
2021/08/26 08:41:55;;;;;;;5.88;3.00;;;24.60;57.20;;;;;;5051364;28;20056;-67
2021/08/26 08:44:22;;;;;;;3.72;2.40;;;24.50;57.30;;;;;;5051300;28;20409;-60
2021/08/26 08:46:49;;;;;;;4.13;2.15;;;24.40;57.30;;;;;;5051940;28;20045;-66
2021/08/26 08:49:19;;;;;;;3.65;2.67;;;24.50;57.10;;;;;;5052391;28;20025;-62
2021/08/26 08:51:48;;;;;;;4.95;2.92;;;24.40;57.30;;;;;;5050973;28;20032;-65
2021/08/26 08:54:16;;;;;;;4.10;2.95;;;24.40;56.90;;;;;;5039252;28;20037;-65
2021/08/26 08:56:42;;;;;;;4.78;2.88;;;24.50;56.90;;;;;;5039201;28;20030;-65
2021/08/26 08:59:09;;;;;;;3.58;1.92;;;24.50;57.00;;;;;;5045698;28;20029;-66
2021/08/26 09:01:36;;;;;;;5.85;2.58;;;24.60;56.80;;;;;;5051148;28;20389;-66
2021/08/26 09:04:06;;;;;;;6.20;2.40;;;24.70;56.20;;;;;;5051089;28;20037;-66
2021/08/26 09:06:40;;;;;;;5.35;2.53;;;24.70;55.80;;;;;;5049327;28;20048;-66
2021/08/26 09:09:08;;;;;;;3.65;2.20;;;24.70;55.90;;;;;;5051838;28;20037;-66
2021/08/26 09:11:35;;;;;;;4.00;2.00;;;24.80;56.10;;;;;;5052340;28;20037;-66
2021/08/26 09:14:11;;;;;;;8.75;2.20;;;24.90;56.00;;;;;;5048665;28;20029;-63
2021/08/26 09:16:40;;;;;;;8.75;2.42;;;25.00;56.20;;;;;;5050491;28;20036;-64
2021/08/26 09:19:27;;;;;;;3.90;2.45;;;24.90;56.40;;;;;;5049576;28;20056;-65
2021/08/26 09:21:54;;;;;;;8.57;4.13;;;25.10;56.30;;;;;;5049081;28;20056;-64
2021/08/26 09:24:21;;;;;;;6.18;3.55;;;25.20;56.10;;;;;;5039054;28;20048;-64
2021/08/26 09:26:52;;;;;;;3.20;2.20;;;25.20;55.50;;;;;;5040683;28;20033;-66
2021/08/26 09:29:19;;;;;;;5.18;3.60;;;25.20;55.20;;;;;;5038306;28;20058;-65
2021/08/26 09:31:46;;;;;;;10.52;3.78;;;25.30;54.90;;;;;;5044837;28;20034;-65
2021/08/26 09:34:14;;;;;;;6.93;3.95;;;25.40;55.30;;;;;;5039814;28;20046;-65
2021/08/26 09:36:46;;;;;;;5.40;2.78;;;25.40;54.90;;;;;;5035587;28;20029;-61
2021/08/26 09:39:17;;;;;;;6.50;2.25;;;25.40;54.90;;;;;;5055041;28;20504;-62
2021/08/26 09:41:50;;;;;;;8.57;2.63;;;25.40;54.70;;;;;;5055023;28;20049;-62
2021/08/26 09:44:25;;;;;;;7.20;2.85;;;25.50;54.90;;;;;;5054816;28;20040;-61
2021/08/26 09:46:53;;;;;;;3.92;2.55;;;25.50;55.10;;;;;;5054668;28;20036;-61
2021/08/26 09:49:22;;;;;;;5.35;2.55;;;25.60;54.90;;;;;;5055328;28;20044;-62
2021/08/26 09:52:03;;;;;;;2.58;1.77;;;25.60;54.90;;;;;;5053635;28;20033;-62
2021/08/26 09:54:36;;;;;;;4.55;2.47;;;25.60;54.60;;;;;;5054458;28;20074;-61
2021/08/26 09:57:04;;;;;;;4.78;2.22;;;25.70;53.70;;;;;;5055715;28;20029;-61
2021/08/26 09:59:44;;;;;;;3.30;2.10;;;25.70;53.80;;;;;;5055141;28;20489;-61
2021/08/26 10:02:11;;;;;;;8.98;2.20;;;25.70;53.20;;;;;;5054674;28;20488;-61
2021/08/26 10:04:40;;;;;;;4.03;1.58;;;25.60;52.70;;;;;;5054304;28;20047;-62
2021/08/26 10:07:07;;;;;;;5.57;1.90;;;25.70;53.10;;;;;;5054846;28;20033;-62
2021/08/26 10:09:35;;;;;;;3.60;1.85;;;25.80;52.90;;;;;;5054605;28;20043;-63
2021/08/26 10:12:02;;;;;;;4.15;1.70;;;25.90;52.90;;;;;;5054923;28;20021;-62
2021/08/26 10:14:32;;;;;;;4.93;2.10;;;26.00;53.00;;;;;;5053231;28;20037;-61
2021/08/26 10:16:59;;;;;;;2.67;1.42;;;26.10;53.20;;;;;;5054247;28;20381;-61
2021/08/26 10:19:26;;;;;;;2.55;1.67;;;26.10;52.40;;;;;;5052611;28;20053;-62
2021/08/26 10:21:53;;;;;;;2.38;1.73;;;26.10;52.40;;;;;;5054553;28;20772;-61
2021/08/26 10:24:21;;;;;;;4.13;2.00;;;26.20;52.70;;;;;;5054309;28;20021;-61
2021/08/26 10:26:53;;;;;;;8.55;2.72;;;26.30;52.60;;;;;;5054415;28;20033;-61
2021/08/26 10:29:21;;;;;;;7.03;2.25;;;26.30;51.90;;;;;;5054247;28;20037;-62
2021/08/26 10:31:57;;;;;;;6.20;2.28;;;26.20;52.30;;;;;;5053456;28;20049;-61
2021/08/26 10:34:27;;;;;;;4.22;1.50;;;26.30;52.80;;;;;;5054413;28;20047;-62
2021/08/26 10:36:56;;;;;;;5.67;1.67;;;26.40;52.50;;;;;;5054419;28;20025;-62
2021/08/26 10:39:42;;;;;;;4.18;1.83;;;26.40;52.70;;;;;;5053744;28;20047;-62
2021/08/26 10:42:39;;;;;;;6.90;1.80;;;26.50;51.80;;;;;;5054285;28;20024;-62
2021/08/26 10:45:07;;;;;;;9.02;5.13;;;26.60;51.40;;;;;;5052298;28;20052;-62
2021/08/26 10:47:48;;;;;;;7.53;5.90;;;26.60;51.50;;;;;;5053722;28;20033;-61
2021/08/26 10:50:24;;;;;;;15.27;9.05;;;26.60;51.00;;;;;;5054226;28;20531;-62
2021/08/26 10:53:30;;;;;;;7.15;3.55;;;26.60;50.70;;;;;;5054299;28;20350;-62
2021/08/26 10:56:12;;;;;;;6.35;3.10;;;26.70;50.80;;;;;;5047704;28;20060;-62
2021/08/26 10:58:39;;;;;;;4.25;1.98;;;26.60;51.20;;;;;;5054040;28;20037;-61
2021/08/26 11:01:07;;;;;;;3.20;2.25;;;26.70;51.50;;;;;;5053864;28;20388;-61
2021/08/26 11:03:34;;;;;;;3.70;2.20;;;26.50;51.10;;;;;;5053242;28;20029;-61
2021/08/26 11:06:22;;;;;;;6.45;2.17;;;26.50;51.50;;;;;;5053919;28;20041;-60
2021/08/26 11:08:51;;;;;;;4.25;1.88;;;26.50;51.40;;;;;;5052456;28;20025;-61
2021/08/26 11:11:27;;;;;;;6.38;2.35;;;26.70;51.50;;;;;;5053582;28;20056;-61
2021/08/26 11:13:59;;;;;;;4.05;1.70;;;26.80;51.00;;;;;;5053717;28;20466;-61
2021/08/26 11:16:26;;;;;;;3.45;2.00;;;26.90;50.70;;;;;;5053051;28;20045;-61
2021/08/26 11:19:16;;;;;;;3.90;1.80;;;26.90;50.30;;;;;;5053451;28;20033;-63
2021/08/26 11:21:45;;;;;;;3.50;1.88;;;27.00;50.00;;;;;;5051106;28;20048;-59
2021/08/26 11:24:22;;;;;;;7.32;3.08;;;27.10;50.10;;;;;;5051392;28;20036;-59
2021/08/26 11:26:50;;;;;;;6.82;3.00;;;27.10;50.10;;;;;;5052316;28;20513;-61
2021/08/26 11:29:25;;;;;;;4.65;2.00;;;27.10;49.70;;;;;;5053131;28;20052;-60
2021/08/26 11:31:54;;;;;;;4.38;1.92;;;27.10;49.10;;;;;;5052507;28;20481;-60
2021/08/26 11:34:21;;;;;;;5.15;2.60;;;27.10;49.60;;;;;;5052928;28;20040;-60
2021/08/26 11:37:07;;;;;;;6.32;2.45;;;27.10;49.80;;;;;;5052965;28;20053;-60
2021/08/26 11:39:41;;;;;;;6.57;3.05;;;27.20;49.10;;;;;;5052331;28;20032;-59
2021/08/26 11:42:22;;;;;;;9.07;3.60;;;27.20;49.30;;;;;;5052281;28;20489;-60
2021/08/26 11:45:06;;;;;;;8.80;4.32;;;27.20;49.60;;;;;;5053060;28;20355;-59
2021/08/26 11:47:34;;;;;;;7.40;5.18;;;27.30;49.40;;;;;;5052291;28;20048;-60
2021/08/26 11:50:22;;;;;;;5.30;3.28;;;27.30;49.30;;;;;;5052298;28;20156;-60
2021/08/26 11:52:56;;;;;;;4.20;2.50;;;27.30;49.10;;;;;;5052673;28;20059;-61
2021/08/26 11:55:24;;;;;;;4.10;2.53;;;27.30;49.00;;;;;;5052914;28;20029;-60
2021/08/26 11:58:05;;;;;;;6.20;3.05;;;27.30;49.30;;;;;;5052830;28;20044;-60
2021/08/26 12:00:33;;;;;;;3.33;1.92;;;27.40;48.90;;;;;;5051797;28;20397;-61
2021/08/26 12:03:01;;;;;;;3.92;1.80;;;27.50;48.40;;;;;;5051133;28;20044;-62
2021/08/26 12:05:29;;;;;;;3.95;2.08;;;27.50;48.70;;;;;;5052267;28;20045;-66
2021/08/26 12:07:56;;;;;;;3.83;1.90;;;27.40;48.40;;;;;;5051788;28;20389;-63
2021/08/26 12:10:43;;;;;;;5.18;2.03;;;27.50;48.70;;;;;;5052366;28;20358;-65
2021/08/26 12:13:13;;;;;;;3.67;2.10;;;27.50;48.70;;;;;;5053018;28;20033;-61
2021/08/26 12:15:39;;;;;;;7.72;3.03;;;27.60;48.40;;;;;;5052167;28;20036;-62
2021/08/26 12:18:14;;;;;;;9.05;5.38;;;27.60;48.60;;;;;;5052364;28;20051;-62
2021/08/26 12:20:46;;;;;;;4.93;2.88;;;27.60;48.70;;;;;;5051281;28;20052;-62
2021/08/26 12:23:18;;;;;;;10.20;3.65;;;27.50;48.40;;;;;;5052603;28;20095;-61
2021/08/26 12:26:06;;;;;;;7.15;3.15;;;27.50;48.00;;;;;;5052827;28;20041;-61
2021/08/26 12:28:36;;;;;;;7.45;2.20;;;27.50;48.40;;;;;;5051959;28;20056;-61
2021/08/26 12:31:37;;;;;;;8.77;2.42;;;27.60;48.10;;;;;;5049641;28;20481;-61
2021/08/26 12:34:27;;;;;;;4.88;1.85;;;27.70;48.40;;;;;;5028171;28;20045;-61
2021/08/26 12:37:03;;;;;;;3.90;1.88;;;27.80;48.10;;;;;;5050941;28;20025;-61
2021/08/26 12:39:29;;;;;;;4.22;1.70;;;27.90;47.90;;;;;;5050387;28;20041;-61
2021/08/26 12:42:22;;;;;;;3.88;1.85;;;27.90;47.60;;;;;;5050022;28;20040;-61
2021/08/26 12:44:48;;;;;;;4.88;2.13;;;28.00;47.10;;;;;;5048624;28;20052;-61
2021/08/26 12:47:28;;;;;;;3.83;1.67;;;28.00;47.00;;;;;;5052354;28;20052;-61
2021/08/26 12:49:56;;;;;;;8.27;1.90;;;28.10;46.90;;;;;;5051071;28;20028;-61
2021/08/26 12:52:34;;;;;;;3.30;1.80;;;28.10;46.90;;;;;;5051806;28;20045;-61
2021/08/26 12:55:01;;;;;;;5.90;2.33;;;28.10;47.00;;;;;;5052401;28;20060;-61
2021/08/26 12:57:27;;;;;;;4.03;1.83;;;28.10;47.20;;;;;;5051775;28;20474;-61
2021/08/26 12:59:54;;;;;;;3.65;1.80;;;28.00;46.80;;;;;;5051915;28;20469;-61